sensor_id;sensor_type;location;lat;lon;timestamp;P1;durP1;ratioP1;P2;durP2;ratioP2
38117;SDS011;23928;47.562;7.508;2023-07-29T00:01:08;3.77;;;2.20;;
38117;SDS011;23928;47.562;7.508;2023-07-29T00:03:33;3.17;;;2.37;;
38117;SDS011;23928;47.562;7.508;2023-07-29T00:05:59;2.43;;;2.00;;
38117;SDS011;23928;47.562;7.508;2023-07-29T00:08:24;2.50;;;1.90;;
38117;SDS011;23928;47.562;7.508;2023-07-29T00:10:50;2.73;;;2.00;;
38117;SDS011;23928;47.562;7.508;2023-07-29T00:13:16;2.77;;;1.93;;
38117;SDS011;23928;47.562;7.508;2023-07-29T00:15:41;2.10;;;1.80;;
38117;SDS011;23928;47.562;7.508;2023-07-29T00:18:07;4.77;;;2.10;;
38117;SDS011;23928;47.562;7.508;2023-07-29T00:20:32;3.77;;;1.90;;
38117;SDS011;23928;47.562;7.508;2023-07-29T00:22:58;2.00;;;1.80;;
38117;SDS011;23928;47.562;7.508;2023-07-29T00:25:24;2.83;;;2.37;;
38117;SDS011;23928;47.562;7.508;2023-07-29T00:27:50;3.37;;;2.00;;
38117;SDS011;23928;47.562;7.508;2023-07-29T00:30:15;2.53;;;2.10;;
38117;SDS011;23928;47.562;7.508;2023-07-29T00:32:41;2.63;;;1.90;;
38117;SDS011;23928;47.562;7.508;2023-07-29T00:35:07;3.20;;;2.23;;
38117;SDS011;23928;47.562;7.508;2023-07-29T00:37:33;2.33;;;1.80;;
38117;SDS011;23928;47.562;7.508;2023-07-29T00:39:58;5.50;;;1.97;;
38117;SDS011;23928;47.562;7.508;2023-07-29T00:42:24;2.77;;;1.93;;
38117;SDS011;23928;47.562;7.508;2023-07-29T00:44:50;2.20;;;1.77;;
38117;SDS011;23928;47.562;7.508;2023-07-29T00:47:16;3.77;;;2.10;;
38117;SDS011;23928;47.562;7.508;2023-07-29T00:49:43;2.87;;;2.10;;
38117;SDS011;23928;47.562;7.508;2023-07-29T00:52:09;2.13;;;1.93;;
38117;SDS011;23928;47.562;7.508;2023-07-29T00:54:37;3.37;;;2.27;;
38117;SDS011;23928;47.562;7.508;2023-07-29T00:57:08;3.43;;;2.20;;
38117;SDS011;23928;47.562;7.508;2023-07-29T00:59:35;2.87;;;1.93;;
38117;SDS011;23928;47.562;7.508;2023-07-29T01:02:01;2.57;;;2.00;;
38117;SDS011;23928;47.562;7.508;2023-07-29T01:04:27;3.83;;;2.07;;
38117;SDS011;23928;47.562;7.508;2023-07-29T01:06:56;3.47;;;1.90;;
38117;SDS011;23928;47.562;7.508;2023-07-29T01:09:43;3.40;;;2.00;;
38117;SDS011;23928;47.562;7.508;2023-07-29T01:12:27;2.30;;;2.10;;
38117;SDS011;23928;47.562;7.508;2023-07-29T01:15:09;2.27;;;2.10;;
38117;SDS011;23928;47.562;7.508;2023-07-29T01:17:54;3.07;;;2.30;;
38117;SDS011;23928;47.562;7.508;2023-07-29T01:20:24;3.63;;;2.07;;
38117;SDS011;23928;47.562;7.508;2023-07-29T01:22:51;2.83;;;2.23;;
38117;SDS011;23928;47.562;7.508;2023-07-29T01:25:16;3.17;;;2.57;;
38117;SDS011;23928;47.562;7.508;2023-07-29T01:27:45;4.30;;;2.37;;
38117;SDS011;23928;47.562;7.508;2023-07-29T01:30:11;4.63;;;2.40;;
38117;SDS011;23928;47.562;7.508;2023-07-29T01:35:36;4.37;;;2.33;;
38117;SDS011;23928;47.562;7.508;2023-07-29T01:38:38;6.67;;;2.60;;
38117;SDS011;23928;47.562;7.508;2023-07-29T01:41:06;3.13;;;2.47;;
38117;SDS011;23928;47.562;7.508;2023-07-29T01:43:33;3.00;;;2.27;;
38117;SDS011;23928;47.562;7.508;2023-07-29T01:46:02;3.67;;;2.20;;
38117;SDS011;23928;47.562;7.508;2023-07-29T01:48:28;4.93;;;2.40;;
38117;SDS011;23928;47.562;7.508;2023-07-29T01:50:55;2.60;;;2.40;;
38117;SDS011;23928;47.562;7.508;2023-07-29T01:53:21;2.87;;;2.40;;
38117;SDS011;23928;47.562;7.508;2023-07-29T01:55:46;4.03;;;2.77;;
38117;SDS011;23928;47.562;7.508;2023-07-29T01:58:12;2.57;;;2.37;;
38117;SDS011;23928;47.562;7.508;2023-07-29T02:00:39;2.60;;;2.10;;
38117;SDS011;23928;47.562;7.508;2023-07-29T02:03:05;4.83;;;2.20;;
38117;SDS011;23928;47.562;7.508;2023-07-29T02:05:30;2.83;;;2.07;;
38117;SDS011;23928;47.562;7.508;2023-07-29T02:07:56;3.60;;;2.40;;
38117;SDS011;23928;47.562;7.508;2023-07-29T02:10:21;3.53;;;2.40;;
38117;SDS011;23928;47.562;7.508;2023-07-29T02:12:47;3.07;;;2.60;;
38117;SDS011;23928;47.562;7.508;2023-07-29T02:15:13;6.00;;;2.67;;
38117;SDS011;23928;47.562;7.508;2023-07-29T02:17:39;2.87;;;2.07;;
38117;SDS011;23928;47.562;7.508;2023-07-29T02:20:06;2.40;;;2.20;;
38117;SDS011;23928;47.562;7.508;2023-07-29T02:22:32;3.17;;;2.20;;
38117;SDS011;23928;47.562;7.508;2023-07-29T02:24:58;4.07;;;2.40;;
38117;SDS011;23928;47.562;7.508;2023-07-29T02:27:23;4.13;;;2.23;;
38117;SDS011;23928;47.562;7.508;2023-07-29T02:29:52;3.30;;;2.17;;
38117;SDS011;23928;47.562;7.508;2023-07-29T02:32:17;6.37;;;2.70;;
38117;SDS011;23928;47.562;7.508;2023-07-29T02:34:44;3.27;;;2.10;;
38117;SDS011;23928;47.562;7.508;2023-07-29T02:37:09;3.87;;;2.40;;
38117;SDS011;23928;47.562;7.508;2023-07-29T02:39:35;2.80;;;2.20;;
38117;SDS011;23928;47.562;7.508;2023-07-29T02:42:01;3.03;;;1.90;;
38117;SDS011;23928;47.562;7.508;2023-07-29T02:44:27;2.10;;;1.90;;
38117;SDS011;23928;47.562;7.508;2023-07-29T02:46:52;2.83;;;2.10;;
38117;SDS011;23928;47.562;7.508;2023-07-29T02:49:20;3.77;;;2.13;;
38117;SDS011;23928;47.562;7.508;2023-07-29T02:51:46;2.80;;;2.23;;
38117;SDS011;23928;47.562;7.508;2023-07-29T02:54:12;2.90;;;2.03;;
38117;SDS011;23928;47.562;7.508;2023-07-29T02:56:37;3.47;;;2.27;;
38117;SDS011;23928;47.562;7.508;2023-07-29T02:59:03;3.07;;;2.33;;
38117;SDS011;23928;47.562;7.508;2023-07-29T03:01:30;7.13;;;2.40;;
38117;SDS011;23928;47.562;7.508;2023-07-29T03:03:55;3.30;;;2.60;;
38117;SDS011;23928;47.562;7.508;2023-07-29T03:06:21;6.03;;;2.67;;
38117;SDS011;23928;47.562;7.508;2023-07-29T03:08:47;3.93;;;2.43;;
38117;SDS011;23928;47.562;7.508;2023-07-29T03:11:13;3.43;;;2.53;;
38117;SDS011;23928;47.562;7.508;2023-07-29T03:13:39;4.90;;;2.60;;
38117;SDS011;23928;47.562;7.508;2023-07-29T03:18:37;3.37;;;2.17;;
38117;SDS011;23928;47.562;7.508;2023-07-29T03:21:03;3.13;;;2.67;;
38117;SDS011;23928;47.562;7.508;2023-07-29T03:23:29;2.17;;;1.97;;
38117;SDS011;23928;47.562;7.508;2023-07-29T03:25:58;3.70;;;2.60;;
38117;SDS011;23928;47.562;7.508;2023-07-29T03:28:32;3.20;;;2.57;;
38117;SDS011;23928;47.562;7.508;2023-07-29T03:30:58;3.93;;;2.23;;
38117;SDS011;23928;47.562;7.508;2023-07-29T03:33:24;3.70;;;2.03;;
38117;SDS011;23928;47.562;7.508;2023-07-29T03:35:50;2.43;;;2.23;;
38117;SDS011;23928;47.562;7.508;2023-07-29T03:38:16;3.23;;;2.27;;
38117;SDS011;23928;47.562;7.508;2023-07-29T03:40:42;3.40;;;2.20;;
38117;SDS011;23928;47.562;7.508;2023-07-29T03:43:07;4.73;;;2.00;;
38117;SDS011;23928;47.562;7.508;2023-07-29T03:45:33;2.70;;;2.40;;
38117;SDS011;23928;47.562;7.508;2023-07-29T03:48:00;2.50;;;2.30;;
38117;SDS011;23928;47.562;7.508;2023-07-29T03:50:26;3.80;;;2.70;;
38117;SDS011;23928;47.562;7.508;2023-07-29T03:52:51;2.40;;;2.20;;
38117;SDS011;23928;47.562;7.508;2023-07-29T03:55:17;4.40;;;2.40;;
38117;SDS011;23928;47.562;7.508;2023-07-29T03:57:43;4.63;;;2.30;;
38117;SDS011;23928;47.562;7.508;2023-07-29T04:00:08;3.23;;;2.30;;
38117;SDS011;23928;47.562;7.508;2023-07-29T04:02:35;5.87;;;2.30;;
38117;SDS011;23928;47.562;7.508;2023-07-29T04:05:02;4.63;;;2.50;;
38117;SDS011;23928;47.562;7.508;2023-07-29T04:07:29;2.67;;;2.03;;
38117;SDS011;23928;47.562;7.508;2023-07-29T04:09:55;2.87;;;2.30;;
38117;SDS011;23928;47.562;7.508;2023-07-29T04:12:20;4.57;;;2.30;;
38117;SDS011;23928;47.562;7.508;2023-07-29T04:14:46;2.40;;;2.20;;
38117;SDS011;23928;47.562;7.508;2023-07-29T04:17:12;3.50;;;2.00;;
38117;SDS011;23928;47.562;7.508;2023-07-29T04:19:38;2.10;;;1.87;;
38117;SDS011;23928;47.562;7.508;2023-07-29T04:22:03;3.10;;;2.50;;
38117;SDS011;23928;47.562;7.508;2023-07-29T04:24:29;2.80;;;2.50;;
38117;SDS011;23928;47.562;7.508;2023-07-29T04:26:54;3.60;;;2.53;;
38117;SDS011;23928;47.562;7.508;2023-07-29T04:29:20;2.87;;;2.20;;
38117;SDS011;23928;47.562;7.508;2023-07-29T04:31:47;2.90;;;2.40;;
38117;SDS011;23928;47.562;7.508;2023-07-29T04:34:13;4.87;;;2.40;;
38117;SDS011;23928;47.562;7.508;2023-07-29T04:36:39;2.43;;;2.23;;
38117;SDS011;23928;47.562;7.508;2023-07-29T04:39:05;2.47;;;2.20;;
38117;SDS011;23928;47.562;7.508;2023-07-29T04:41:30;3.43;;;2.40;;
38117;SDS011;23928;47.562;7.508;2023-07-29T04:43:56;3.30;;;2.80;;
38117;SDS011;23928;47.562;7.508;2023-07-29T04:46:21;3.73;;;3.07;;
38117;SDS011;23928;47.562;7.508;2023-07-29T04:48:47;3.87;;;2.47;;
38117;SDS011;23928;47.562;7.508;2023-07-29T04:51:12;5.13;;;2.70;;
38117;SDS011;23928;47.562;7.508;2023-07-29T04:53:38;3.80;;;3.00;;
38117;SDS011;23928;47.562;7.508;2023-07-29T04:56:04;3.70;;;2.90;;
38117;SDS011;23928;47.562;7.508;2023-07-29T04:58:30;3.70;;;2.70;;
38117;SDS011;23928;47.562;7.508;2023-07-29T05:00:59;4.70;;;3.53;;
38117;SDS011;23928;47.562;7.508;2023-07-29T05:03:25;4.07;;;3.20;;
38117;SDS011;23928;47.562;7.508;2023-07-29T05:05:51;4.03;;;3.10;;
38117;SDS011;23928;47.562;7.508;2023-07-29T05:08:18;7.20;;;3.10;;
38117;SDS011;23928;47.562;7.508;2023-07-29T05:10:44;4.20;;;2.80;;
38117;SDS011;23928;47.562;7.508;2023-07-29T05:13:13;3.40;;;2.97;;
38117;SDS011;23928;47.562;7.508;2023-07-29T05:15:38;4.50;;;2.80;;
38117;SDS011;23928;47.562;7.508;2023-07-29T05:18:04;4.23;;;2.63;;
38117;SDS011;23928;47.562;7.508;2023-07-29T05:20:29;3.93;;;3.13;;
38117;SDS011;23928;47.562;7.508;2023-07-29T05:22:55;5.40;;;3.27;;
38117;SDS011;23928;47.562;7.508;2023-07-29T05:25:21;3.67;;;2.90;;
38117;SDS011;23928;47.562;7.508;2023-07-29T05:27:46;4.40;;;3.20;;
38117;SDS011;23928;47.562;7.508;2023-07-29T05:30:12;4.67;;;2.90;;
38117;SDS011;23928;47.562;7.508;2023-07-29T05:32:37;3.50;;;3.10;;
38117;SDS011;23928;47.562;7.508;2023-07-29T05:35:03;3.23;;;2.93;;
38117;SDS011;23928;47.562;7.508;2023-07-29T05:37:29;3.83;;;3.13;;
38117;SDS011;23928;47.562;7.508;2023-07-29T05:39:54;3.90;;;3.13;;
38117;SDS011;23928;47.562;7.508;2023-07-29T05:42:20;4.13;;;3.40;;
38117;SDS011;23928;47.562;7.508;2023-07-29T05:44:45;5.93;;;3.03;;
38117;SDS011;23928;47.562;7.508;2023-07-29T05:47:11;3.60;;;2.90;;
38117;SDS011;23928;47.562;7.508;2023-07-29T05:49:37;4.17;;;3.00;;
38117;SDS011;23928;47.562;7.508;2023-07-29T05:52:02;3.23;;;2.90;;
38117;SDS011;23928;47.562;7.508;2023-07-29T05:54:28;4.37;;;3.63;;
38117;SDS011;23928;47.562;7.508;2023-07-29T05:56:53;4.13;;;2.90;;
38117;SDS011;23928;47.562;7.508;2023-07-29T05:59:19;4.60;;;3.20;;
38117;SDS011;23928;47.562;7.508;2023-07-29T06:01:45;5.50;;;3.40;;
38117;SDS011;23928;47.562;7.508;2023-07-29T06:04:10;4.20;;;3.47;;
38117;SDS011;23928;47.562;7.508;2023-07-29T06:06:36;4.10;;;3.10;;
38117;SDS011;23928;47.562;7.508;2023-07-29T06:09:01;3.37;;;2.70;;
38117;SDS011;23928;47.562;7.508;2023-07-29T06:11:27;3.23;;;2.93;;
38117;SDS011;23928;47.562;7.508;2023-07-29T06:13:53;3.87;;;3.00;;
38117;SDS011;23928;47.562;7.508;2023-07-29T06:16:18;5.40;;;3.10;;
38117;SDS011;23928;47.562;7.508;2023-07-29T06:18:44;5.67;;;2.97;;
38117;SDS011;23928;47.562;7.508;2023-07-29T06:21:10;3.23;;;2.93;;
38117;SDS011;23928;47.562;7.508;2023-07-29T06:23:41;4.00;;;3.00;;
38117;SDS011;23928;47.562;7.508;2023-07-29T06:26:08;3.63;;;3.10;;
38117;SDS011;23928;47.562;7.508;2023-07-29T06:28:33;3.63;;;2.93;;
38117;SDS011;23928;47.562;7.508;2023-07-29T06:30:59;5.07;;;3.07;;
38117;SDS011;23928;47.562;7.508;2023-07-29T06:33:24;5.10;;;3.20;;
38117;SDS011;23928;47.562;7.508;2023-07-29T06:35:50;7.27;;;3.07;;
38117;SDS011;23928;47.562;7.508;2023-07-29T06:38:15;3.70;;;3.03;;
38117;SDS011;23928;47.562;7.508;2023-07-29T06:40:46;3.60;;;2.87;;
38117;SDS011;23928;47.562;7.508;2023-07-29T06:43:12;3.17;;;2.60;;
38117;SDS011;23928;47.562;7.508;2023-07-29T06:45:38;3.67;;;3.10;;
38117;SDS011;23928;47.562;7.508;2023-07-29T06:48:03;3.43;;;2.70;;
38117;SDS011;23928;47.562;7.508;2023-07-29T06:50:29;2.77;;;2.57;;
38117;SDS011;23928;47.562;7.508;2023-07-29T06:52:55;4.83;;;3.00;;
38117;SDS011;23928;47.562;7.508;2023-07-29T06:55:20;7.43;;;3.10;;
38117;SDS011;23928;47.562;7.508;2023-07-29T06:57:46;3.83;;;2.80;;
38117;SDS011;23928;47.562;7.508;2023-07-29T07:00:11;3.37;;;2.63;;
38117;SDS011;23928;47.562;7.508;2023-07-29T07:02:37;3.57;;;3.10;;
38117;SDS011;23928;47.562;7.508;2023-07-29T07:05:03;3.80;;;2.67;;
38117;SDS011;23928;47.562;7.508;2023-07-29T07:07:28;3.33;;;2.77;;
38117;SDS011;23928;47.562;7.508;2023-07-29T07:09:54;3.77;;;2.80;;
38117;SDS011;23928;47.562;7.508;2023-07-29T07:12:19;3.57;;;2.70;;
38117;SDS011;23928;47.562;7.508;2023-07-29T07:14:45;3.53;;;2.43;;
38117;SDS011;23928;47.562;7.508;2023-07-29T07:17:11;3.47;;;2.07;;
38117;SDS011;23928;47.562;7.508;2023-07-29T07:19:36;4.53;;;1.90;;
38117;SDS011;23928;47.562;7.508;2023-07-29T07:22:02;1.90;;;1.80;;
38117;SDS011;23928;47.562;7.508;2023-07-29T07:24:28;4.33;;;1.73;;
38117;SDS011;23928;47.562;7.508;2023-07-29T07:26:53;4.17;;;1.80;;
38117;SDS011;23928;47.562;7.508;2023-07-29T07:29:19;2.20;;;1.80;;
38117;SDS011;23928;47.562;7.508;2023-07-29T07:31:49;2.60;;;1.90;;
38117;SDS011;23928;47.562;7.508;2023-07-29T07:34:17;1.97;;;1.70;;
38117;SDS011;23928;47.562;7.508;2023-07-29T07:36:43;5.00;;;1.70;;
38117;SDS011;23928;47.562;7.508;2023-07-29T07:39:09;3.80;;;1.63;;
38117;SDS011;23928;47.562;7.508;2023-07-29T07:41:34;3.17;;;1.73;;
38117;SDS011;23928;47.562;7.508;2023-07-29T07:44:00;2.50;;;2.30;;
38117;SDS011;23928;47.562;7.508;2023-07-29T07:46:25;2.40;;;1.90;;
38117;SDS011;23928;47.562;7.508;2023-07-29T07:48:51;3.57;;;1.70;;
38117;SDS011;23928;47.562;7.508;2023-07-29T07:51:16;2.80;;;2.00;;
38117;SDS011;23928;47.562;7.508;2023-07-29T07:53:42;4.27;;;2.20;;
38117;SDS011;23928;47.562;7.508;2023-07-29T07:56:07;2.67;;;1.97;;
38117;SDS011;23928;47.562;7.508;2023-07-29T07:58:33;2.53;;;1.63;;
38117;SDS011;23928;47.562;7.508;2023-07-29T08:01:03;2.10;;;1.90;;
38117;SDS011;23928;47.562;7.508;2023-07-29T08:03:30;2.10;;;1.60;;
38117;SDS011;23928;47.562;7.508;2023-07-29T08:05:56;2.87;;;1.90;;
38117;SDS011;23928;47.562;7.508;2023-07-29T08:08:21;1.83;;;1.70;;
38117;SDS011;23928;47.562;7.508;2023-07-29T08:10:47;2.33;;;1.80;;
38117;SDS011;23928;47.562;7.508;2023-07-29T08:13:13;2.17;;;1.80;;
38117;SDS011;23928;47.562;7.508;2023-07-29T08:15:38;2.10;;;1.90;;
38117;SDS011;23928;47.562;7.508;2023-07-29T08:18:04;3.70;;;1.60;;
38117;SDS011;23928;47.562;7.508;2023-07-29T08:20:29;2.83;;;1.63;;
38117;SDS011;23928;47.562;7.508;2023-07-29T08:22:55;2.00;;;1.80;;
38117;SDS011;23928;47.562;7.508;2023-07-29T08:25:21;1.90;;;1.80;;
38117;SDS011;23928;47.562;7.508;2023-07-29T08:27:46;1.93;;;1.80;;
38117;SDS011;23928;47.562;7.508;2023-07-29T08:30:12;2.07;;;1.87;;
38117;SDS011;23928;47.562;7.508;2023-07-29T08:32:38;2.20;;;2.00;;
38117;SDS011;23928;47.562;7.508;2023-07-29T08:35:03;2.47;;;1.80;;
38117;SDS011;23928;47.562;7.508;2023-07-29T08:37:29;2.00;;;1.90;;
38117;SDS011;23928;47.562;7.508;2023-07-29T08:39:56;2.07;;;1.87;;
38117;SDS011;23928;47.562;7.508;2023-07-29T08:42:21;2.03;;;1.80;;
38117;SDS011;23928;47.562;7.508;2023-07-29T08:44:49;2.07;;;1.80;;
38117;SDS011;23928;47.562;7.508;2023-07-29T08:47:16;1.77;;;1.67;;
38117;SDS011;23928;47.562;7.508;2023-07-29T08:49:43;1.77;;;1.67;;
38117;SDS011;23928;47.562;7.508;2023-07-29T08:52:11;5.50;;;2.60;;
38117;SDS011;23928;47.562;7.508;2023-07-29T08:54:38;1.90;;;1.80;;
38117;SDS011;23928;47.562;7.508;2023-07-29T08:57:04;2.60;;;2.20;;
38117;SDS011;23928;47.562;7.508;2023-07-29T08:59:31;1.80;;;1.70;;
38117;SDS011;23928;47.562;7.508;2023-07-29T09:01:58;2.37;;;1.60;;
38117;SDS011;23928;47.562;7.508;2023-07-29T09:04:24;2.10;;;2.00;;
38117;SDS011;23928;47.562;7.508;2023-07-29T09:06:50;2.80;;;1.70;;
38117;SDS011;23928;47.562;7.508;2023-07-29T09:09:16;3.87;;;2.03;;
38117;SDS011;23928;47.562;7.508;2023-07-29T09:11:42;4.07;;;1.90;;
38117;SDS011;23928;47.562;7.508;2023-07-29T09:14:09;2.03;;;1.80;;
38117;SDS011;23928;47.562;7.508;2023-07-29T09:16:35;2.87;;;1.50;;
38117;SDS011;23928;47.562;7.508;2023-07-29T09:19:02;2.37;;;1.80;;
38117;SDS011;23928;47.562;7.508;2023-07-29T09:21:31;3.20;;;2.10;;
38117;SDS011;23928;47.562;7.508;2023-07-29T09:23:57;2.00;;;1.90;;
38117;SDS011;23928;47.562;7.508;2023-07-29T09:26:29;2.13;;;1.70;;
38117;SDS011;23928;47.562;7.508;2023-07-29T09:28:55;3.20;;;1.90;;
38117;SDS011;23928;47.562;7.508;2023-07-29T09:31:22;2.10;;;1.90;;
38117;SDS011;23928;47.562;7.508;2023-07-29T09:33:48;2.27;;;2.07;;
38117;SDS011;23928;47.562;7.508;2023-07-29T09:36:14;4.33;;;1.93;;
38117;SDS011;23928;47.562;7.508;2023-07-29T09:38:40;2.37;;;2.13;;
38117;SDS011;23928;47.562;7.508;2023-07-29T09:41:06;2.00;;;1.80;;
38117;SDS011;23928;47.562;7.508;2023-07-29T09:43:32;2.20;;;1.83;;
38117;SDS011;23928;47.562;7.508;2023-07-29T09:46:00;2.63;;;1.70;;
38117;SDS011;23928;47.562;7.508;2023-07-29T09:48:34;3.70;;;2.37;;
38117;SDS011;23928;47.562;7.508;2023-07-29T09:51:09;2.40;;;2.20;;
38117;SDS011;23928;47.562;7.508;2023-07-29T09:53:45;2.17;;;1.80;;
38117;SDS011;23928;47.562;7.508;2023-07-29T09:56:12;2.43;;;2.00;;
38117;SDS011;23928;47.562;7.508;2023-07-29T09:58:38;2.70;;;1.97;;
38117;SDS011;23928;47.562;7.508;2023-07-29T10:01:06;2.00;;;1.80;;
38117;SDS011;23928;47.562;7.508;2023-07-29T10:03:32;2.70;;;2.07;;
38117;SDS011;23928;47.562;7.508;2023-07-29T10:06:03;2.23;;;2.03;;
38117;SDS011;23928;47.562;7.508;2023-07-29T10:08:30;2.33;;;1.80;;
38117;SDS011;23928;47.562;7.508;2023-07-29T10:11:08;3.10;;;2.23;;
38117;SDS011;23928;47.562;7.508;2023-07-29T10:13:36;2.40;;;2.20;;
38117;SDS011;23928;47.562;7.508;2023-07-29T10:16:03;3.63;;;2.20;;
38117;SDS011;23928;47.562;7.508;2023-07-29T10:18:30;2.37;;;2.13;;
38117;SDS011;23928;47.562;7.508;2023-07-29T10:20:57;5.03;;;2.33;;
38117;SDS011;23928;47.562;7.508;2023-07-29T10:23:24;2.30;;;2.10;;
38117;SDS011;23928;47.562;7.508;2023-07-29T10:26:04;3.30;;;2.40;;
38117;SDS011;23928;47.562;7.508;2023-07-29T10:28:31;2.33;;;2.03;;
38117;SDS011;23928;47.562;7.508;2023-07-29T10:30:57;3.37;;;2.20;;
38117;SDS011;23928;47.562;7.508;2023-07-29T10:33:24;2.67;;;2.27;;
38117;SDS011;23928;47.562;7.508;2023-07-29T10:35:50;4.07;;;2.33;;
38117;SDS011;23928;47.562;7.508;2023-07-29T10:38:17;3.50;;;2.70;;
38117;SDS011;23928;47.562;7.508;2023-07-29T10:40:47;3.17;;;2.60;;
38117;SDS011;23928;47.562;7.508;2023-07-29T10:43:34;2.67;;;2.03;;
38117;SDS011;23928;47.562;7.508;2023-07-29T10:46:19;2.43;;;2.13;;
38117;SDS011;23928;47.562;7.508;2023-07-29T10:51:30;3.87;;;2.30;;
38117;SDS011;23928;47.562;7.508;2023-07-29T10:54:03;3.00;;;2.50;;
38117;SDS011;23928;47.562;7.508;2023-07-29T10:56:36;2.13;;;2.00;;
38117;SDS011;23928;47.562;7.508;2023-07-29T11:01:40;2.73;;;2.37;;
38117;SDS011;23928;47.562;7.508;2023-07-29T11:20:29;2.80;;;2.60;;
38117;SDS011;23928;47.562;7.508;2023-07-29T11:22:58;2.77;;;2.57;;
38117;SDS011;23928;47.562;7.508;2023-07-29T11:25:26;3.17;;;2.47;;
38117;SDS011;23928;47.562;7.508;2023-07-29T11:27:53;2.90;;;2.60;;
38117;SDS011;23928;47.562;7.508;2023-07-29T11:30:19;3.50;;;2.77;;
38117;SDS011;23928;47.562;7.508;2023-07-29T11:32:45;3.23;;;2.40;;
38117;SDS011;23928;47.562;7.508;2023-07-29T11:35:14;3.37;;;2.70;;
38117;SDS011;23928;47.562;7.508;2023-07-29T11:37:41;2.43;;;2.23;;
38117;SDS011;23928;47.562;7.508;2023-07-29T11:40:09;3.07;;;2.37;;
38117;SDS011;23928;47.562;7.508;2023-07-29T11:42:38;2.60;;;2.40;;
38117;SDS011;23928;47.562;7.508;2023-07-29T11:45:04;3.03;;;2.83;;
38117;SDS011;23928;47.562;7.508;2023-07-29T11:47:33;3.33;;;2.30;;
38117;SDS011;23928;47.562;7.508;2023-07-29T11:50:05;2.50;;;2.30;;
38117;SDS011;23928;47.562;7.508;2023-07-29T11:52:34;2.70;;;2.23;;
38117;SDS011;23928;47.562;7.508;2023-07-29T11:55:01;3.30;;;2.20;;
38117;SDS011;23928;47.562;7.508;2023-07-29T11:57:28;2.37;;;2.10;;
38117;SDS011;23928;47.562;7.508;2023-07-29T11:59:54;2.73;;;2.00;;
38117;SDS011;23928;47.562;7.508;2023-07-29T12:02:20;2.60;;;2.40;;
38117;SDS011;23928;47.562;7.508;2023-07-29T12:04:47;3.37;;;2.47;;
38117;SDS011;23928;47.562;7.508;2023-07-29T12:07:14;2.83;;;2.10;;
38117;SDS011;23928;47.562;7.508;2023-07-29T12:09:41;2.87;;;2.20;;
38117;SDS011;23928;47.562;7.508;2023-07-29T12:12:08;2.30;;;2.10;;
38117;SDS011;23928;47.562;7.508;2023-07-29T12:14:34;2.57;;;2.37;;
38117;SDS011;23928;47.562;7.508;2023-07-29T12:17:00;3.30;;;2.20;;
38117;SDS011;23928;47.562;7.508;2023-07-29T12:19:31;2.50;;;2.30;;
38117;SDS011;23928;47.562;7.508;2023-07-29T12:22:01;3.87;;;2.20;;
38117;SDS011;23928;47.562;7.508;2023-07-29T12:24:29;2.00;;;1.90;;
38117;SDS011;23928;47.562;7.508;2023-07-29T12:26:55;2.60;;;2.40;;
38117;SDS011;23928;47.562;7.508;2023-07-29T12:29:20;4.63;;;2.40;;
38117;SDS011;23928;47.562;7.508;2023-07-29T12:31:46;2.60;;;2.40;;
38117;SDS011;23928;47.562;7.508;2023-07-29T12:34:21;2.47;;;2.07;;
38117;SDS011;23928;47.562;7.508;2023-07-29T12:36:50;3.60;;;2.67;;
38117;SDS011;23928;47.562;7.508;2023-07-29T12:39:17;2.73;;;2.10;;
38117;SDS011;23928;47.562;7.508;2023-07-29T12:41:43;2.47;;;2.20;;
38117;SDS011;23928;47.562;7.508;2023-07-29T12:44:09;3.20;;;2.23;;
38117;SDS011;23928;47.562;7.508;2023-07-29T12:46:34;2.70;;;2.10;;
38117;SDS011;23928;47.562;7.508;2023-07-29T12:49:00;3.07;;;2.47;;
38117;SDS011;23928;47.562;7.508;2023-07-29T12:51:26;3.83;;;2.43;;
38117;SDS011;23928;47.562;7.508;2023-07-29T12:53:53;2.43;;;2.23;;
38117;SDS011;23928;47.562;7.508;2023-07-29T12:56:19;2.70;;;2.00;;
38117;SDS011;23928;47.562;7.508;2023-07-29T12:58:45;2.10;;;2.00;;
38117;SDS011;23928;47.562;7.508;2023-07-29T13:01:10;2.57;;;2.00;;
38117;SDS011;23928;47.562;7.508;2023-07-29T13:03:42;4.37;;;2.53;;
38117;SDS011;23928;47.562;7.508;2023-07-29T13:06:12;4.97;;;2.20;;
38117;SDS011;23928;47.562;7.508;2023-07-29T13:08:37;2.50;;;2.30;;
38117;SDS011;23928;47.562;7.508;2023-07-29T13:11:03;2.60;;;2.40;;
38117;SDS011;23928;47.562;7.508;2023-07-29T13:13:29;2.47;;;2.27;;
38117;SDS011;23928;47.562;7.508;2023-07-29T13:15:55;2.43;;;2.20;;
38117;SDS011;23928;47.562;7.508;2023-07-29T13:18:21;3.13;;;2.50;;
38117;SDS011;23928;47.562;7.508;2023-07-29T13:20:47;3.00;;;2.50;;
38117;SDS011;23928;47.562;7.508;2023-07-29T13:23:13;2.40;;;2.20;;
38117;SDS011;23928;47.562;7.508;2023-07-29T13:25:38;3.13;;;2.60;;
38117;SDS011;23928;47.562;7.508;2023-07-29T13:28:04;3.70;;;2.70;;
38117;SDS011;23928;47.562;7.508;2023-07-29T13:30:30;4.07;;;2.63;;
38117;SDS011;23928;47.562;7.508;2023-07-29T13:32:55;2.63;;;2.43;;
38117;SDS011;23928;47.562;7.508;2023-07-29T13:35:21;4.13;;;2.80;;
38117;SDS011;23928;47.562;7.508;2023-07-29T13:37:47;4.10;;;2.83;;
38117;SDS011;23928;47.562;7.508;2023-07-29T13:40:12;4.30;;;2.80;;
38117;SDS011;23928;47.562;7.508;2023-07-29T13:42:38;7.13;;;3.20;;
38117;SDS011;23928;47.562;7.508;2023-07-29T13:45:04;4.03;;;3.10;;
38117;SDS011;23928;47.562;7.508;2023-07-29T13:47:30;3.70;;;3.30;;
38117;SDS011;23928;47.562;7.508;2023-07-29T13:49:55;5.33;;;3.10;;
38117;SDS011;23928;47.562;7.508;2023-07-29T13:52:21;4.40;;;2.90;;
38117;SDS011;23928;47.562;7.508;2023-07-29T13:54:46;4.40;;;2.97;;
38117;SDS011;23928;47.562;7.508;2023-07-29T13:57:12;3.50;;;2.80;;
38117;SDS011;23928;47.562;7.508;2023-07-29T13:59:37;3.40;;;2.97;;
38117;SDS011;23928;47.562;7.508;2023-07-29T14:02:06;3.20;;;2.70;;
38117;SDS011;23928;47.562;7.508;2023-07-29T14:04:32;3.83;;;2.60;;
38117;SDS011;23928;47.562;7.508;2023-07-29T14:06:58;2.70;;;2.20;;
38117;SDS011;23928;47.562;7.508;2023-07-29T14:09:24;3.10;;;2.40;;
38117;SDS011;23928;47.562;7.508;2023-07-29T14:11:50;2.43;;;1.93;;
38117;SDS011;23928;47.562;7.508;2023-07-29T14:14:16;2.40;;;1.97;;
38117;SDS011;23928;47.562;7.508;2023-07-29T14:16:41;1.60;;;1.50;;
38117;SDS011;23928;47.562;7.508;2023-07-29T14:19:07;3.57;;;2.00;;
38117;SDS011;23928;47.562;7.508;2023-07-29T14:21:33;1.83;;;1.60;;
38117;SDS011;23928;47.562;7.508;2023-07-29T14:23:58;1.57;;;1.47;;
38117;SDS011;23928;47.562;7.508;2023-07-29T14:26:24;1.80;;;1.70;;
38117;SDS011;23928;47.562;7.508;2023-07-29T14:28:50;2.93;;;1.50;;
38117;SDS011;23928;47.562;7.508;2023-07-29T14:31:16;2.90;;;1.70;;
38117;SDS011;23928;47.562;7.508;2023-07-29T14:33:42;3.27;;;1.50;;
38117;SDS011;23928;47.562;7.508;2023-07-29T14:36:11;1.90;;;1.80;;
38117;SDS011;23928;47.562;7.508;2023-07-29T14:38:36;1.97;;;1.70;;
38117;SDS011;23928;47.562;7.508;2023-07-29T14:41:02;2.50;;;1.60;;
38117;SDS011;23928;47.562;7.508;2023-07-29T14:43:29;2.00;;;1.80;;
38117;SDS011;23928;47.562;7.508;2023-07-29T14:45:55;1.80;;;1.70;;
38117;SDS011;23928;47.562;7.508;2023-07-29T14:48:21;1.70;;;1.60;;
38117;SDS011;23928;47.562;7.508;2023-07-29T14:50:46;1.83;;;1.63;;
38117;SDS011;23928;47.562;7.508;2023-07-29T14:53:12;2.13;;;1.83;;
38117;SDS011;23928;47.562;7.508;2023-07-29T14:55:38;2.50;;;1.80;;
38117;SDS011;23928;47.562;7.508;2023-07-29T14:58:03;3.00;;;2.00;;
38117;SDS011;23928;47.562;7.508;2023-07-29T15:00:29;3.47;;;1.83;;
38117;SDS011;23928;47.562;7.508;2023-07-29T15:02:55;3.10;;;1.67;;
38117;SDS011;23928;47.562;7.508;2023-07-29T15:05:20;2.00;;;1.83;;
38117;SDS011;23928;47.562;7.508;2023-07-29T15:07:46;3.00;;;2.13;;
38117;SDS011;23928;47.562;7.508;2023-07-29T15:10:15;2.90;;;2.10;;
38117;SDS011;23928;47.562;7.508;2023-07-29T15:12:41;3.50;;;2.47;;